Time;durP1;ratioP1;P1;durP2;ratioP2;P2;SDS_P1;SDS_P2;PMS_P1;PMS_P2;Temp;Humidity;BMP_temperature;BMP_pressure;BME280_temperature;BME280_humidity;BME280_pressure;Samples;Min_cycle;Max_cycle;Signal;HPM_P1;HPM_P2
2022/07/31 00:00:35;;;;;;;5.60;5.00;;;;;21.30;99095.00;;;;16758896;28;20614;-78
2022/07/31 00:08:39;;;;;;;11.10;6.07;;;;;21.20;99098.00;;;;16758846;28;20262;-79
2022/07/31 00:16:41;;;;;;;5.27;4.87;;;;;21.10;99095.00;;;;16764792;28;20229;-78
2022/07/31 00:24:45;;;;;;;6.43;5.37;;;;;20.60;99093.00;;;;16776144;28;20281;-78
2022/07/31 00:32:48;;;;;;;6.97;5.73;;;;;19.80;99103.00;;;;16748428;28;20198;-78
2022/07/31 00:40:52;;;;;;;6.20;5.70;;;;;20.90;99099.00;;;;16754362;28;20440;-78
2022/07/31 00:48:54;;;;;;;6.47;5.97;;;;;20.90;99098.00;;;;16754491;28;20249;-78
2022/07/31 00:56:58;;;;;;;6.20;5.60;;;;;20.90;99097.00;;;;16747049;28;20695;-78
2022/07/31 01:05:00;;;;;;;6.53;5.90;;;;;20.40;99107.00;;;;16755369;28;20221;-78
2022/07/31 01:13:08;;;;;;;6.17;5.77;;;;;20.70;99102.00;;;;16764999;28;20247;-79
2022/07/31 01:21:13;;;;;;;6.73;6.10;;;;;20.30;99103.00;;;;16762710;28;20225;-79
2022/07/31 01:29:25;;;;;;;7.50;6.60;;;;;19.80;99102.00;;;;16747778;28;20228;-79
2022/07/31 01:37:31;;;;;;;7.80;7.20;;;;;20.10;99102.00;;;;16755509;28;20225;-79
2022/07/31 01:45:37;;;;;;;6.87;6.23;;;;;19.60;99101.00;;;;16757690;28;20594;-78
2022/07/31 01:53:45;;;;;;;6.10;5.70;;;;;19.70;99103.00;;;;16759983;28;20209;-78
2022/07/31 02:01:51;;;;;;;7.40;6.80;;;;;19.80;99098.00;;;;16754309;28;20220;-79
2022/07/31 02:09:54;;;;;;;9.07;7.90;;;;;18.80;99109.00;;;;16786133;28;20225;-79
2022/07/31 02:18:01;;;;;;;7.30;6.57;;;;;20.20;99102.00;;;;16736822;28;20228;-78
2022/07/31 02:26:09;;;;;;;6.60;6.10;;;;;19.30;99103.00;;;;16741243;28;20288;-78
2022/07/31 02:34:14;;;;;;;7.90;7.00;;;;;19.60;99093.00;;;;16745553;28;20227;-78
2022/07/31 02:42:17;;;;;;;8.20;7.40;;;;;19.10;99092.00;;;;16742901;28;20217;-78
2022/07/31 02:50:22;;;;;;;8.07;7.43;;;;;18.90;99096.00;;;;16755478;28;20229;-78
2022/07/31 02:58:27;;;;;;;8.90;7.30;;;;;19.30;99088.00;;;;16748814;28;20610;-78
2022/07/31 03:06:31;;;;;;;9.60;8.80;;;;;19.50;99083.00;;;;16742586;28;20270;-78
2022/07/31 03:14:35;;;;;;;8.57;7.97;;;;;18.50;99087.00;;;;16772774;28;20259;-78
2022/07/31 03:22:40;;;;;;;8.60;7.90;;;;;18.40;99099.00;;;;16750932;28;20226;-78
2022/07/31 03:30:42;;;;;;;9.27;8.47;;;;;18.40;99095.00;;;;16767827;28;20955;-78
2022/07/31 03:38:46;;;;;;;8.83;8.23;;;;;18.80;99104.00;;;;16754977;28;20217;-78
2022/07/31 03:47:03;;;;;;;9.80;8.90;;;;;18.70;99102.00;;;;16771984;28;20224;-79
2022/07/31 03:55:08;;;;;;;9.83;8.60;;;;;18.40;99103.00;;;;16759819;28;20926;-78
2022/07/31 04:03:13;;;;;;;9.93;8.63;;;;;18.50;99103.00;;;;16753378;28;20589;-78
2022/07/31 04:11:49;;;;;;;10.03;9.13;;;;;18.50;99100.00;;;;16756943;28;20221;-78
2022/07/31 04:19:52;;;;;;;8.90;8.07;;;;;18.70;99095.00;;;;16744415;28;20245;-78
2022/07/31 04:27:56;;;;;;;8.70;8.00;;;;;19.20;99102.00;;;;16764418;28;20249;-78
2022/07/31 04:35:58;;;;;;;8.80;8.10;;;;;19.30;99100.00;;;;16745810;28;20233;-78
2022/07/31 04:44:03;;;;;;;8.60;8.00;;;;;20.70;99100.00;;;;16762615;28;20209;-78
2022/07/31 04:52:19;;;;;;;6.83;6.23;;;;;21.20;99114.00;;;;16770196;28;20326;-79
2022/07/31 05:00:26;;;;;;;6.50;5.90;;;;;21.90;99112.00;;;;16745590;28;20229;-78
2022/07/31 05:08:29;;;;;;;7.17;6.30;;;;;22.60;99097.00;;;;16758588;28;20646;-85
2022/07/31 05:16:35;;;;;;;6.93;6.23;;;;;23.00;99098.00;;;;16769991;28;20224;-79
2022/07/31 05:24:39;;;;;;;6.10;5.60;;;;;23.40;99096.00;;;;16756027;28;20574;-79
2022/07/31 05:32:44;;;;;;;10.90;5.93;;;;;23.40;99086.00;;;;16782741;28;20343;-80
2022/07/31 05:40:47;;;;;;;8.50;5.67;;;;;23.50;99096.00;;;;16766649;28;20221;-79
2022/07/31 05:49:12;;;;;;;5.53;4.90;;;;;23.10;99097.00;;;;16771884;28;20224;-79
2022/07/31 05:57:15;;;;;;;6.13;4.60;;;;;23.00;99103.00;;;;16765108;28;20896;-79
2022/07/31 06:05:19;;;;;;;6.13;5.50;;;;;23.30;99103.00;;;;16764400;28;20218;-80
2022/07/31 06:13:25;;;;;;;6.50;5.07;;;;;23.10;99107.00;;;;16755760;28;20674;-80
2022/07/31 06:21:29;;;;;;;11.43;6.30;;;;;23.30;99120.00;;;;16771362;28;20788;-80
2022/07/31 06:29:32;;;;;;;6.10;5.50;;;;;23.50;99116.00;;;;16747986;28;20729;-79
2022/07/31 06:37:43;;;;;;;5.97;5.10;;;;;23.20;99123.00;;;;16760644;28;20225;-80
2022/07/31 06:45:49;;;;;;;4.63;4.20;;;;;23.90;99130.00;;;;16766414;28;20222;-81
2022/07/31 06:54:22;;;;;;;5.60;5.10;;;;;23.70;99129.00;;;;16769284;28;20229;-80
2022/07/31 07:02:27;;;;;;;5.70;5.30;;;;;23.80;99116.00;;;;16799176;28;20312;-80
2022/07/31 07:10:31;;;;;;;6.20;5.70;;;;;24.00;99113.00;;;;16786451;28;20241;-81
2022/07/31 07:18:34;;;;;;;4.90;4.13;;;;;23.90;99108.00;;;;16755562;28;20233;-80
2022/07/31 07:26:38;;;;;;;5.33;4.87;;;;;24.00;99115.00;;;;16781762;28;20225;-80
2022/07/31 07:34:41;;;;;;;4.50;4.10;;;;;24.10;99107.00;;;;16774395;28;20379;-83
2022/07/31 07:42:52;;;;;;;6.00;4.43;;;;;24.40;99107.00;;;;16767066;28;20256;-86
2022/07/31 07:50:55;;;;;;;5.57;4.50;;;;;25.00;99097.00;;;;16756719;28;20731;-85
2022/07/31 07:59:07;;;;;;;5.43;4.10;;;;;25.00;99093.00;;;;16759758;28;20236;-85
2022/07/31 08:07:28;;;;;;;5.20;3.87;;;;;25.50;99098.00;;;;16775126;28;20476;-85
2022/07/31 08:15:32;;;;;;;5.03;4.07;;;;;25.90;99097.00;;;;16770370;28;20713;-85
2022/07/31 08:23:46;;;;;;;4.13;3.83;;;;;25.70;99092.00;;;;16772283;28;20197;-86
2022/07/31 08:31:50;;;;;;;4.30;4.00;;;;;25.90;99093.00;;;;16796466;28;20305;-85
2022/07/31 08:40:13;;;;;;;3.80;3.50;;;;;25.90;99095.00;;;;16789551;28;20232;-85
2022/07/31 08:48:17;;;;;;;5.20;3.80;;;;;26.00;99090.00;;;;16767711;28;20218;-85
2022/07/31 08:56:24;;;;;;;4.10;3.40;;;;;26.10;99089.00;;;;16759718;28;20221;-85
2022/07/31 09:04:29;;;;;;;4.67;4.23;;;;;26.40;99076.00;;;;16750799;28;20677;-85
2022/07/31 09:12:33;;;;;;;5.00;4.47;;;;;27.30;99075.00;;;;16757850;28;20779;-85
2022/07/31 09:20:46;;;;;;;4.03;3.73;;;;;26.80;99060.00;;;;16744611;28;20229;-85
2022/07/31 09:28:50;;;;;;;6.13;3.93;;;;;27.60;99054.00;;;;16760394;28;20716;-85
2022/07/31 09:36:54;;;;;;;4.03;3.73;;;;;27.80;99049.00;;;;16761300;28;20729;-85
2022/07/31 09:45:21;;;;;;;3.70;3.40;;;;;28.30;99048.00;;;;16719940;28;20593;-85
2022/07/31 09:53:26;;;;;;;3.73;3.13;;;;;28.50;99036.00;;;;16754445;28;20219;-84
2022/07/31 10:01:42;;;;;;;4.67;3.33;;;;;28.40;99030.00;;;;16785806;28;20230;-81
2022/07/31 10:09:47;;;;;;;3.20;3.00;;;;;28.30;99019.00;;;;16775256;28;20636;-84
2022/07/31 10:17:55;;;;;;;5.37;3.93;;;;;29.20;98998.00;;;;16772892;28;20257;-84
2022/07/31 10:26:34;;;;;;;4.50;3.03;;;;;30.70;98991.00;;;;16778159;28;20213;-84
2022/07/31 10:34:37;;;;;;;2.90;2.60;;;;;31.80;98996.00;;;;16765878;28;20210;-85
2022/07/31 10:43:20;;;;;;;3.33;2.93;;;;;31.60;98985.00;;;;16770820;28;20250;-83
2022/07/31 10:51:49;;;;;;;3.87;3.00;;;;;32.40;98989.00;;;;16756713;28;20329;-83
2022/07/31 11:00:16;;;;;;;4.93;3.90;;;;;32.20;98977.00;;;;16769358;28;20244;-83
2022/07/31 11:08:53;;;;;;;2.67;2.47;;;;;29.70;98976.00;;;;16728504;28;20255;-83
2022/07/31 11:17:35;;;;;;;3.33;2.80;;;;;30.20;98971.00;;;;16766572;28;20245;-82
2022/07/31 11:25:59;;;;;;;6.53;2.93;;;;;31.60;98962.00;;;;16774158;28;20209;-83
2022/07/31 11:34:04;;;;;;;3.30;3.00;;;;;31.90;98948.00;;;;16754633;28;20276;-83
2022/07/31 11:42:07;;;;;;;2.70;2.50;;;;;33.20;98949.00;;;;16753236;28;20225;-83
2022/07/31 11:50:11;;;;;;;2.80;2.47;;;;;31.90;98942.00;;;;16758200;28;20217;-84
2022/07/31 11:58:15;;;;;;;2.57;2.33;;;;;31.60;98935.00;;;;16755096;28;20229;-82
2022/07/31 12:06:20;;;;;;;4.93;2.97;;;;;33.40;98920.00;;;;16782094;28;20217;-83
2022/07/31 12:14:31;;;;;;;4.20;2.27;;;;;32.50;98913.00;;;;16755619;28;20201;-83
2022/07/31 12:22:35;;;;;;;3.23;2.80;;;;;33.10;98912.00;;;;16762100;28;20427;-83
2022/07/31 12:30:38;;;;;;;4.83;2.37;;;;;33.90;98899.00;;;;16777725;28;20225;-83
2022/07/31 12:38:42;;;;;;;2.60;2.07;;;;;34.90;98896.00;;;;16746548;28;20338;-81
2022/07/31 12:46:44;;;;;;;3.77;2.47;;;;;34.20;98893.00;;;;16772101;28;20298;-81
2022/07/31 12:54:48;;;;;;;3.30;2.93;;;;;32.50;98886.00;;;;16759494;28;20216;-80
2022/07/31 13:02:51;;;;;;;2.53;2.33;;;;;32.80;98875.00;;;;16772532;28;20221;-81
2022/07/31 13:10:55;;;;;;;2.70;2.40;;;;;36.30;98872.00;;;;16754351;28;20217;-81
2022/07/31 13:18:57;;;;;;;2.50;2.30;;;;;35.80;98856.00;;;;16750281;28;20229;-81
2022/07/31 13:27:01;;;;;;;2.17;1.97;;;;;36.70;98847.00;;;;16751638;28;20304;-80
2022/07/31 13:35:04;;;;;;;2.37;2.17;;;;;38.40;98837.00;;;;16762861;28;20232;-81
2022/07/31 13:43:08;;;;;;;3.53;2.47;;;;;33.00;98813.00;;;;16757686;28;20253;-80
2022/07/31 13:51:10;;;;;;;2.23;2.00;;;;;34.50;98805.00;;;;16756698;28;20351;-81
2022/07/31 13:59:15;;;;;;;2.10;1.90;;;;;35.70;98797.00;;;;16756448;28;20229;-81
2022/07/31 14:07:17;;;;;;;3.80;2.23;;;;;33.90;98805.00;;;;16750873;28;20222;-81
2022/07/31 14:15:22;;;;;;;5.30;2.67;;;;;33.30;98784.00;;;;16765818;28;20229;-81
2022/07/31 14:23:24;;;;;;;2.50;2.30;;;;;32.90;98779.00;;;;16744769;28;20225;-81
2022/07/31 14:31:28;;;;;;;2.60;2.40;;;;;33.60;98779.00;;;;16766903;28;20222;-81
2022/07/31 14:39:30;;;;;;;2.70;2.50;;;;;32.70;98773.00;;;;16747449;28;20335;-83
2022/07/31 14:47:34;;;;;;;2.13;2.03;;;;;33.70;98765.00;;;;16758606;28;20304;-83
2022/07/31 14:55:37;;;;;;;4.33;2.00;;;;;34.80;98755.00;;;;16775161;28;20693;-81
2022/07/31 15:03:42;;;;;;;2.10;2.00;;;;;33.50;98750.00;;;;16769124;28;20314;-83
2022/07/31 15:11:47;;;;;;;2.73;2.37;;;;;33.10;98737.00;;;;16762151;28;20285;-83
2022/07/31 15:19:51;;;;;;;1.80;1.70;;;;;35.60;98734.00;;;;16754480;28;20238;-84
2022/07/31 15:27:53;;;;;;;2.27;1.97;;;;;35.40;98740.00;;;;16770284;28;20668;-83
2022/07/31 15:35:57;;;;;;;2.70;2.50;;;;;34.00;98734.00;;;;16781126;28;20229;-83
2022/07/31 15:43:59;;;;;;;2.23;2.00;;;;;35.60;98718.00;;;;16777542;28;20241;-85
2022/07/31 15:52:06;;;;;;;2.40;2.20;;;;;34.50;98720.00;;;;16786121;28;20689;-83
2022/07/31 16:00:10;;;;;;;2.00;1.80;;;;;33.50;98712.00;;;;16793765;28;20837;-83
2022/07/31 16:08:17;;;;;;;2.23;2.03;;;;;32.90;98706.00;;;;16807642;28;20243;-84
2022/07/31 16:16:21;;;;;;;3.23;2.23;;;;;32.60;98711.00;;;;16804280;28;20429;-82
2022/07/31 16:24:24;;;;;;;2.10;2.00;;;;;34.20;98698.00;;;;16800968;28;20213;-83
2022/07/31 16:32:27;;;;;;;2.13;2.03;;;;;33.80;98683.00;;;;16799917;28;20217;-83
2022/07/31 16:40:32;;;;;;;4.60;2.63;;;;;32.90;98681.00;;;;16784984;28;20597;-82
2022/07/31 16:48:35;;;;;;;2.87;2.43;;;;;32.60;98682.00;;;;16785796;28;20221;-81
2022/07/31 16:56:38;;;;;;;2.93;2.33;;;;;32.60;98694.00;;;;16781237;28;20229;-83
2022/07/31 17:04:41;;;;;;;3.30;2.73;;;;;32.80;98681.00;;;;16771087;28;20227;-81
2022/07/31 17:12:45;;;;;;;2.50;2.30;;;;;32.00;98680.00;;;;16790728;28;20197;-81
2022/07/31 17:20:47;;;;;;;3.93;2.63;;;;;32.30;98680.00;;;;16795519;28;20229;-81
2022/07/31 17:28:51;;;;;;;2.57;2.37;;;;;31.80;98682.00;;;;16789019;28;20232;-81
2022/07/31 17:36:54;;;;;;;2.93;2.63;;;;;31.70;98688.00;;;;16772710;28;20222;-82
2022/07/31 17:45:01;;;;;;;2.70;2.50;;;;;32.00;98696.00;;;;16771681;28;20206;-83
2022/07/31 17:53:05;;;;;;;3.30;2.70;;;;;32.10;98698.00;;;;16784322;28;20198;-81
2022/07/31 18:01:11;;;;;;;3.37;3.00;;;;;30.90;98706.00;;;;16801830;28;20225;-81
2022/07/31 18:09:17;;;;;;;3.70;2.80;;;;;30.30;98713.00;;;;16782676;28;20636;-80
2022/07/31 18:17:21;;;;;;;4.20;3.23;;;;;30.00;98714.00;;;;16749827;28;20253;-79
2022/07/31 18:25:24;;;;;;;5.23;3.37;;;;;29.40;98720.00;;;;16754234;28;20270;-79
2022/07/31 18:33:28;;;;;;;4.67;3.00;;;;;28.90;98729.00;;;;16747563;28;20213;-80
2022/07/31 18:41:32;;;;;;;3.10;2.90;;;;;28.70;98720.00;;;;16756637;28;20221;-79
2022/07/31 18:49:39;;;;;;;3.90;3.50;;;;;28.30;98719.00;;;;16762582;28;20315;-78
2022/07/31 18:57:43;;;;;;;3.87;2.90;;;;;27.90;98716.00;;;;16769911;28;20816;-79
2022/07/31 19:05:48;;;;;;;3.53;3.23;;;;;27.70;98723.00;;;;16766487;28;20229;-78
2022/07/31 19:13:51;;;;;;;2.77;2.57;;;;;27.30;98728.00;;;;16786946;28;20193;-78
2022/07/31 19:21:55;;;;;;;4.93;3.27;;;;;27.00;98737.00;;;;16802652;28;20225;-79
2022/07/31 19:29:57;;;;;;;3.90;3.33;;;;;26.50;98750.00;;;;16786528;28;20322;-79
2022/07/31 19:38:04;;;;;;;4.63;3.70;;;;;26.10;98752.00;;;;16793522;28;20761;-80
2022/07/31 19:46:06;;;;;;;3.30;3.07;;;;;25.70;98763.00;;;;16776465;28;20287;-80
2022/07/31 19:54:10;;;;;;;4.13;3.73;;;;;25.70;98762.00;;;;16780714;28;20214;-78
2022/07/31 20:02:13;;;;;;;4.67;3.20;;;;;25.30;98770.00;;;;16772021;28;20279;-79
2022/07/31 20:10:17;;;;;;;3.33;3.03;;;;;25.00;98778.00;;;;16773853;28;20297;-80
2022/07/31 20:18:25;;;;;;;3.73;3.43;;;;;24.80;98781.00;;;;16773912;28;20589;-81
2022/07/31 20:26:30;;;;;;;4.80;3.13;;;;;24.60;98788.00;;;;16786144;28;20233;-79
2022/07/31 20:34:32;;;;;;;3.63;3.30;;;;;24.40;98792.00;;;;16753848;28;20289;-80
2022/07/31 20:42:36;;;;;;;3.10;2.90;;;;;24.20;98791.00;;;;16762120;28;20257;-79
2022/07/31 20:50:39;;;;;;;3.30;3.03;;;;;24.10;98792.00;;;;16780138;28;20221;-80
2022/07/31 20:58:43;;;;;;;4.63;3.20;;;;;24.20;98786.00;;;;16766094;28;20237;-77
2022/07/31 21:06:45;;;;;;;3.70;2.90;;;;;24.20;98801.00;;;;16755168;28;20317;-79
2022/07/31 21:14:49;;;;;;;2.40;2.20;;;;;24.20;98811.00;;;;16768454;28;20219;-80
2022/07/31 21:22:52;;;;;;;4.20;2.50;;;;;24.10;98818.00;;;;16774102;28;20306;-79
2022/07/31 21:30:56;;;;;;;2.53;2.33;;;;;24.00;98816.00;;;;16776063;28;20213;-80
2022/07/31 21:38:59;;;;;;;3.77;3.00;;;;;23.90;98815.00;;;;16782945;28;20290;-79
2022/07/31 21:47:03;;;;;;;2.23;2.13;;;;;23.80;98826.00;;;;16768961;28;20217;-79
2022/07/31 21:55:06;;;;;;;4.23;2.20;;;;;23.70;98820.00;;;;16774251;28;20221;-80
2022/07/31 22:03:10;;;;;;;3.33;2.37;;;;;23.60;98831.00;;;;16756284;28;20217;-80
2022/07/31 22:11:12;;;;;;;2.93;2.73;;;;;23.30;98833.00;;;;16761562;28;20217;-81
2022/07/31 22:19:16;;;;;;;2.77;2.57;;;;;23.40;98826.00;;;;16766390;28;20231;-80
2022/07/31 22:35:41;;;;;;;3.00;2.60;;;;;23.20;98843.00;;;;16787957;28;20717;-80
2022/07/31 22:43:44;;;;;;;4.40;2.07;;;;;23.00;98840.00;;;;16785032;28;20222;-79
2022/07/31 22:51:48;;;;;;;2.67;2.47;;;;;23.10;98841.00;;;;16788213;28;20255;-80
2022/07/31 22:59:50;;;;;;;2.80;2.60;;;;;22.90;98843.00;;;;16790066;28;20675;-79
2022/07/31 23:07:54;;;;;;;2.93;2.50;;;;;22.80;98851.00;;;;16807120;28;20228;-80
2022/07/31 23:15:56;;;;;;;3.20;2.73;;;;;22.90;98851.00;;;;16802825;28;20679;-80
2022/07/31 23:24:00;;;;;;;3.20;2.87;;;;;22.90;98870.00;;;;16793290;28;20229;-80
2022/07/31 23:32:04;;;;;;;3.90;3.47;;;;;22.90;98861.00;;;;16802857;28;20228;-80
2022/07/31 23:40:09;;;;;;;3.20;2.80;;;;;23.20;98872.00;;;;16810058;28;20255;-80
2022/07/31 23:48:11;;;;;;;2.80;2.60;;;;;23.50;98874.00;;;;16797356;28;20252;-80
2022/07/31 23:56:15;;;;;;;3.20;2.90;;;;;24.00;98864.00;;;;16794115;28;20233;-80
